Terminal Aerodrome Forecast
Issued by NWS Portland, ME

Home | Current Version | Previous Version | Text Only | Print | Product List | Glossary On
Versions: 1 2 3 4 5 6 7 8 9 10 11 12 13 14 15 16 17 18 19 20 21 22 23 24 25 26
000
FTUS41 KGYX 251752 AAA
TAFCON
TAF AMD
KCON 251752Z 2518/2618 18012G20KT P6SM BKN045
     FM260400 25010KT 5SM SHRA BR OVC025
     FM260800 30012G20KT P6SM SCT040=

USA.gov is the U.S. government's official web portal to all federal, state and local government web resources and services.